sensor_id;sensor_type;location;lat;lon;timestamp;P1;durP1;ratioP1;P2;durP2;ratioP2
81679;SDS011;74989;52.210;5.148;2024-01-30T00:00:27;17.37;;;12.63;;
81679;SDS011;74989;52.210;5.148;2024-01-30T00:02:54;17.52;;;12.02;;
81679;SDS011;74989;52.210;5.148;2024-01-30T00:05:21;25.38;;;12.95;;
81679;SDS011;74989;52.210;5.148;2024-01-30T00:07:47;16.35;;;12.48;;
81679;SDS011;74989;52.210;5.148;2024-01-30T00:10:14;19.45;;;13.63;;
81679;SDS011;74989;52.210;5.148;2024-01-30T00:12:41;20.10;;;12.60;;
81679;SDS011;74989;52.210;5.148;2024-01-30T00:15:09;20.00;;;12.70;;
81679;SDS011;74989;52.210;5.148;2024-01-30T00:17:35;18.33;;;12.30;;
81679;SDS011;74989;52.210;5.148;2024-01-30T00:20:03;20.27;;;12.82;;
81679;SDS011;74989;52.210;5.148;2024-01-30T00:22:31;19.75;;;13.38;;
81679;SDS011;74989;52.210;5.148;2024-01-30T00:24:58;20.03;;;12.50;;
81679;SDS011;74989;52.210;5.148;2024-01-30T00:27:25;17.17;;;11.75;;
81679;SDS011;74989;52.210;5.148;2024-01-30T00:29:52;19.13;;;11.82;;
81679;SDS011;74989;52.210;5.148;2024-01-30T00:32:20;25.15;;;11.90;;
81679;SDS011;74989;52.210;5.148;2024-01-30T00:34:48;21.05;;;12.68;;
81679;SDS011;74989;52.210;5.148;2024-01-30T00:37:15;18.37;;;11.30;;
81679;SDS011;74989;52.210;5.148;2024-01-30T00:39:41;15.90;;;11.40;;
81679;SDS011;74989;52.210;5.148;2024-01-30T00:42:08;19.85;;;12.32;;
81679;SDS011;74989;52.210;5.148;2024-01-30T00:44:35;18.88;;;12.07;;
81679;SDS011;74989;52.210;5.148;2024-01-30T00:47:02;16.88;;;11.45;;
81679;SDS011;74989;52.210;5.148;2024-01-30T00:49:30;21.20;;;11.43;;
81679;SDS011;74989;52.210;5.148;2024-01-30T00:51:57;17.85;;;12.02;;
81679;SDS011;74989;52.210;5.148;2024-01-30T00:54:23;19.85;;;12.68;;
81679;SDS011;74989;52.210;5.148;2024-01-30T00:56:50;15.00;;;10.38;;
81679;SDS011;74989;52.210;5.148;2024-01-30T00:59:17;19.17;;;12.27;;
81679;SDS011;74989;52.210;5.148;2024-01-30T01:01:43;20.00;;;11.37;;
81679;SDS011;74989;52.210;5.148;2024-01-30T01:04:10;19.15;;;11.90;;
81679;SDS011;74989;52.210;5.148;2024-01-30T01:06:38;20.10;;;12.68;;
81679;SDS011;74989;52.210;5.148;2024-01-30T01:09:07;17.38;;;12.82;;
81679;SDS011;74989;52.210;5.148;2024-01-30T01:11:34;18.73;;;12.20;;
81679;SDS011;74989;52.210;5.148;2024-01-30T01:14:00;18.57;;;11.53;;
81679;SDS011;74989;52.210;5.148;2024-01-30T01:16:27;17.52;;;11.45;;
81679;SDS011;74989;52.210;5.148;2024-01-30T01:18:54;15.50;;;10.27;;
81679;SDS011;74989;52.210;5.148;2024-01-30T01:21:20;17.20;;;11.68;;
81679;SDS011;74989;52.210;5.148;2024-01-30T01:23:49;19.20;;;11.57;;
81679;SDS011;74989;52.210;5.148;2024-01-30T01:26:16;13.57;;;9.67;;
81679;SDS011;74989;52.210;5.148;2024-01-30T01:28:42;19.80;;;10.70;;
81679;SDS011;74989;52.210;5.148;2024-01-30T01:31:09;16.30;;;10.73;;
81679;SDS011;74989;52.210;5.148;2024-01-30T01:33:36;21.05;;;10.68;;
81679;SDS011;74989;52.210;5.148;2024-01-30T01:36:03;17.13;;;11.43;;
81679;SDS011;74989;52.210;5.148;2024-01-30T01:38:30;17.17;;;10.63;;
81679;SDS011;74989;52.210;5.148;2024-01-30T01:40:58;13.57;;;9.30;;
81679;SDS011;74989;52.210;5.148;2024-01-30T01:43:24;16.42;;;10.95;;
81679;SDS011;74989;52.210;5.148;2024-01-30T01:45:51;16.42;;;9.35;;
81679;SDS011;74989;52.210;5.148;2024-01-30T01:48:17;14.65;;;10.00;;
81679;SDS011;74989;52.210;5.148;2024-01-30T01:50:44;16.53;;;9.87;;
81679;SDS011;74989;52.210;5.148;2024-01-30T01:53:11;14.88;;;10.10;;
81679;SDS011;74989;52.210;5.148;2024-01-30T01:55:39;17.70;;;11.15;;
81679;SDS011;74989;52.210;5.148;2024-01-30T01:58:07;17.70;;;12.13;;
81679;SDS011;74989;52.210;5.148;2024-01-30T02:00:35;21.77;;;11.57;;
81679;SDS011;74989;52.210;5.148;2024-01-30T02:03:04;19.33;;;11.03;;
81679;SDS011;74989;52.210;5.148;2024-01-30T02:05:32;16.55;;;11.75;;
81679;SDS011;74989;52.210;5.148;2024-01-30T02:07:58;15.55;;;11.13;;
81679;SDS011;74989;52.210;5.148;2024-01-30T02:10:25;13.13;;;9.98;;
81679;SDS011;74989;52.210;5.148;2024-01-30T02:12:52;16.27;;;11.90;;
81679;SDS011;74989;52.210;5.148;2024-01-30T02:15:20;15.00;;;10.37;;
81679;SDS011;74989;52.210;5.148;2024-01-30T02:17:46;16.55;;;10.88;;
81679;SDS011;74989;52.210;5.148;2024-01-30T02:20:13;16.13;;;11.07;;
81679;SDS011;74989;52.210;5.148;2024-01-30T02:22:41;13.88;;;10.55;;
81679;SDS011;74989;52.210;5.148;2024-01-30T02:25:09;16.65;;;11.93;;
81679;SDS011;74989;52.210;5.148;2024-01-30T02:27:35;18.70;;;10.83;;
81679;SDS011;74989;52.210;5.148;2024-01-30T02:30:02;13.23;;;10.05;;
81679;SDS011;74989;52.210;5.148;2024-01-30T02:32:29;20.10;;;10.93;;
81679;SDS011;74989;52.210;5.148;2024-01-30T02:34:56;16.25;;;10.73;;
81679;SDS011;74989;52.210;5.148;2024-01-30T02:37:23;17.90;;;9.80;;
81679;SDS011;74989;52.210;5.148;2024-01-30T02:39:50;16.27;;;10.10;;
81679;SDS011;74989;52.210;5.148;2024-01-30T02:42:17;13.80;;;10.30;;
81679;SDS011;74989;52.210;5.148;2024-01-30T02:44:44;18.67;;;11.75;;
81679;SDS011;74989;52.210;5.148;2024-01-30T02:47:10;15.07;;;10.85;;
81679;SDS011;74989;52.210;5.148;2024-01-30T02:49:37;17.85;;;11.00;;
81679;SDS011;74989;52.210;5.148;2024-01-30T02:52:04;13.30;;;9.60;;
81679;SDS011;74989;52.210;5.148;2024-01-30T02:54:30;14.95;;;10.32;;
81679;SDS011;74989;52.210;5.148;2024-01-30T02:56:58;13.13;;;9.70;;
81679;SDS011;74989;52.210;5.148;2024-01-30T02:59:25;18.52;;;10.70;;
81679;SDS011;74989;52.210;5.148;2024-01-30T03:01:52;17.02;;;11.05;;
81679;SDS011;74989;52.210;5.148;2024-01-30T03:04:18;15.87;;;9.77;;
81679;SDS011;74989;52.210;5.148;2024-01-30T03:06:45;13.88;;;9.13;;
81679;SDS011;74989;52.210;5.148;2024-01-30T03:09:13;16.00;;;9.80;;
81679;SDS011;74989;52.210;5.148;2024-01-30T03:11:39;14.43;;;10.07;;
81679;SDS011;74989;52.210;5.148;2024-01-30T03:14:07;14.73;;;9.82;;
81679;SDS011;74989;52.210;5.148;2024-01-30T03:16:36;14.60;;;10.20;;
81679;SDS011;74989;52.210;5.148;2024-01-30T03:19:03;16.48;;;10.85;;
81679;SDS011;74989;52.210;5.148;2024-01-30T03:21:30;15.73;;;11.38;;
81679;SDS011;74989;52.210;5.148;2024-01-30T03:23:57;17.52;;;10.77;;
81679;SDS011;74989;52.210;5.148;2024-01-30T03:26:24;13.30;;;9.77;;
81679;SDS011;74989;52.210;5.148;2024-01-30T03:28:51;13.73;;;10.23;;
81679;SDS011;74989;52.210;5.148;2024-01-30T03:31:19;18.17;;;10.73;;
81679;SDS011;74989;52.210;5.148;2024-01-30T03:33:46;15.27;;;10.13;;
81679;SDS011;74989;52.210;5.148;2024-01-30T03:36:13;17.92;;;9.73;;
81679;SDS011;74989;52.210;5.148;2024-01-30T03:38:41;14.95;;;10.02;;
81679;SDS011;74989;52.210;5.148;2024-01-30T03:41:08;16.10;;;9.83;;
81679;SDS011;74989;52.210;5.148;2024-01-30T03:43:34;13.35;;;9.75;;
81679;SDS011;74989;52.210;5.148;2024-01-30T03:46:01;15.18;;;9.77;;
81679;SDS011;74989;52.210;5.148;2024-01-30T03:48:29;17.42;;;11.25;;
81679;SDS011;74989;52.210;5.148;2024-01-30T03:50:56;16.38;;;11.27;;
81679;SDS011;74989;52.210;5.148;2024-01-30T03:53:23;16.77;;;10.50;;
81679;SDS011;74989;52.210;5.148;2024-01-30T03:55:50;21.02;;;9.13;;
81679;SDS011;74989;52.210;5.148;2024-01-30T03:58:16;15.70;;;9.75;;
81679;SDS011;74989;52.210;5.148;2024-01-30T04:00:43;18.45;;;10.25;;
81679;SDS011;74989;52.210;5.148;2024-01-30T04:03:10;14.90;;;10.10;;
81679;SDS011;74989;52.210;5.148;2024-01-30T04:05:38;15.50;;;9.47;;
81679;SDS011;74989;52.210;5.148;2024-01-30T04:08:04;16.65;;;9.75;;
81679;SDS011;74989;52.210;5.148;2024-01-30T04:10:31;15.65;;;10.57;;
81679;SDS011;74989;52.210;5.148;2024-01-30T04:12:58;12.52;;;9.45;;
81679;SDS011;74989;52.210;5.148;2024-01-30T04:15:24;13.48;;;10.75;;
81679;SDS011;74989;52.210;5.148;2024-01-30T04:17:51;16.23;;;10.63;;
81679;SDS011;74989;52.210;5.148;2024-01-30T04:20:18;14.00;;;9.15;;
81679;SDS011;74989;52.210;5.148;2024-01-30T04:22:46;13.70;;;10.82;;
81679;SDS011;74989;52.210;5.148;2024-01-30T04:25:13;14.77;;;10.85;;
81679;SDS011;74989;52.210;5.148;2024-01-30T04:27:40;14.55;;;11.15;;
81679;SDS011;74989;52.210;5.148;2024-01-30T04:30:07;15.57;;;10.53;;
81679;SDS011;74989;52.210;5.148;2024-01-30T04:32:35;20.15;;;10.82;;
81679;SDS011;74989;52.210;5.148;2024-01-30T04:35:02;16.63;;;10.27;;
81679;SDS011;74989;52.210;5.148;2024-01-30T04:37:29;16.85;;;10.32;;
81679;SDS011;74989;52.210;5.148;2024-01-30T04:39:57;14.77;;;10.50;;
81679;SDS011;74989;52.210;5.148;2024-01-30T04:42:23;16.70;;;10.77;;
81679;SDS011;74989;52.210;5.148;2024-01-30T04:44:50;17.48;;;10.95;;
81679;SDS011;74989;52.210;5.148;2024-01-30T04:47:17;14.63;;;10.02;;
81679;SDS011;74989;52.210;5.148;2024-01-30T04:49:43;15.45;;;10.93;;
81679;SDS011;74989;52.210;5.148;2024-01-30T04:52:10;17.40;;;11.73;;
81679;SDS011;74989;52.210;5.148;2024-01-30T04:54:37;23.30;;;11.70;;
81679;SDS011;74989;52.210;5.148;2024-01-30T04:57:05;16.25;;;11.18;;
81679;SDS011;74989;52.210;5.148;2024-01-30T04:59:34;18.08;;;11.77;;
81679;SDS011;74989;52.210;5.148;2024-01-30T05:02:01;17.33;;;11.18;;
81679;SDS011;74989;52.210;5.148;2024-01-30T05:04:28;15.80;;;11.57;;
81679;SDS011;74989;52.210;5.148;2024-01-30T05:06:54;16.17;;;11.63;;
81679;SDS011;74989;52.210;5.148;2024-01-30T05:09:21;18.25;;;10.82;;
81679;SDS011;74989;52.210;5.148;2024-01-30T05:11:48;16.85;;;11.15;;
81679;SDS011;74989;52.210;5.148;2024-01-30T05:14:16;16.60;;;11.82;;
81679;SDS011;74989;52.210;5.148;2024-01-30T05:16:43;16.02;;;11.18;;
81679;SDS011;74989;52.210;5.148;2024-01-30T05:19:12;18.73;;;11.80;;
81679;SDS011;74989;52.210;5.148;2024-01-30T05:21:38;15.52;;;11.70;;
81679;SDS011;74989;52.210;5.148;2024-01-30T05:24:05;18.75;;;11.18;;
81679;SDS011;74989;52.210;5.148;2024-01-30T05:26:35;17.20;;;10.18;;
81679;SDS011;74989;52.210;5.148;2024-01-30T05:29:01;18.83;;;10.90;;
81679;SDS011;74989;52.210;5.148;2024-01-30T05:31:29;17.23;;;10.23;;
81679;SDS011;74989;52.210;5.148;2024-01-30T05:33:56;14.82;;;11.07;;
81679;SDS011;74989;52.210;5.148;2024-01-30T05:36:23;15.48;;;10.68;;
81679;SDS011;74989;52.210;5.148;2024-01-30T05:38:50;16.75;;;9.80;;
81679;SDS011;74989;52.210;5.148;2024-01-30T05:41:16;18.70;;;9.88;;
81679;SDS011;74989;52.210;5.148;2024-01-30T05:43:43;14.63;;;9.47;;
81679;SDS011;74989;52.210;5.148;2024-01-30T05:46:10;15.55;;;10.60;;
81679;SDS011;74989;52.210;5.148;2024-01-30T05:48:37;19.85;;;11.80;;
81679;SDS011;74989;52.210;5.148;2024-01-30T05:51:04;14.65;;;10.20;;
81679;SDS011;74989;52.210;5.148;2024-01-30T05:53:31;18.35;;;10.63;;
81679;SDS011;74989;52.210;5.148;2024-01-30T05:55:58;16.83;;;10.37;;
81679;SDS011;74989;52.210;5.148;2024-01-30T05:58:25;14.68;;;10.18;;
81679;SDS011;74989;52.210;5.148;2024-01-30T06:00:52;15.43;;;10.73;;
81679;SDS011;74989;52.210;5.148;2024-01-30T06:03:18;14.18;;;9.75;;
81679;SDS011;74989;52.210;5.148;2024-01-30T06:05:46;17.13;;;10.40;;
81679;SDS011;74989;52.210;5.148;2024-01-30T06:08:13;15.03;;;9.70;;
81679;SDS011;74989;52.210;5.148;2024-01-30T06:10:40;16.40;;;9.55;;
81679;SDS011;74989;52.210;5.148;2024-01-30T06:13:06;12.93;;;9.38;;
81679;SDS011;74989;52.210;5.148;2024-01-30T06:15:33;16.27;;;9.48;;
81679;SDS011;74989;52.210;5.148;2024-01-30T06:18:00;16.60;;;10.02;;
81679;SDS011;74989;52.210;5.148;2024-01-30T06:20:26;16.17;;;10.07;;
81679;SDS011;74989;52.210;5.148;2024-01-30T06:22:57;16.27;;;10.00;;
81679;SDS011;74989;52.210;5.148;2024-01-30T06:25:24;20.23;;;9.45;;
81679;SDS011;74989;52.210;5.148;2024-01-30T06:27:51;16.25;;;10.25;;
81679;SDS011;74989;52.210;5.148;2024-01-30T06:30:18;16.70;;;10.15;;
81679;SDS011;74989;52.210;5.148;2024-01-30T06:32:44;12.63;;;8.23;;
81679;SDS011;74989;52.210;5.148;2024-01-30T06:35:11;17.05;;;10.20;;
81679;SDS011;74989;52.210;5.148;2024-01-30T06:37:38;14.93;;;8.85;;
81679;SDS011;74989;52.210;5.148;2024-01-30T06:40:06;14.48;;;9.18;;
81679;SDS011;74989;52.210;5.148;2024-01-30T06:42:34;11.95;;;9.10;;
81679;SDS011;74989;52.210;5.148;2024-01-30T06:45:00;14.00;;;8.80;;
81679;SDS011;74989;52.210;5.148;2024-01-30T06:47:27;15.63;;;9.35;;
81679;SDS011;74989;52.210;5.148;2024-01-30T06:49:56;15.60;;;9.20;;
81679;SDS011;74989;52.210;5.148;2024-01-30T06:52:22;17.20;;;9.50;;
81679;SDS011;74989;52.210;5.148;2024-01-30T06:54:49;12.38;;;8.80;;
81679;SDS011;74989;52.210;5.148;2024-01-30T06:57:17;13.10;;;8.83;;
81679;SDS011;74989;52.210;5.148;2024-01-30T06:59:43;15.40;;;9.68;;
81679;SDS011;74989;52.210;5.148;2024-01-30T07:02:10;17.90;;;9.60;;
81679;SDS011;74989;52.210;5.148;2024-01-30T07:04:37;14.95;;;8.85;;
81679;SDS011;74989;52.210;5.148;2024-01-30T07:07:04;18.75;;;9.93;;
81679;SDS011;74989;52.210;5.148;2024-01-30T07:09:36;24.47;;;8.17;;
81679;SDS011;74989;52.210;5.148;2024-01-30T07:12:03;19.38;;;8.52;;
81679;SDS011;74989;52.210;5.148;2024-01-30T07:14:32;14.13;;;9.05;;
81679;SDS011;74989;52.210;5.148;2024-01-30T07:16:59;15.85;;;8.85;;
81679;SDS011;74989;52.210;5.148;2024-01-30T07:19:25;19.15;;;10.25;;
81679;SDS011;74989;52.210;5.148;2024-01-30T07:21:52;18.73;;;8.20;;
81679;SDS011;74989;52.210;5.148;2024-01-30T07:24:19;13.73;;;9.32;;
81679;SDS011;74989;52.210;5.148;2024-01-30T07:26:45;12.10;;;9.00;;
81679;SDS011;74989;52.210;5.148;2024-01-30T07:29:12;17.92;;;8.40;;
81679;SDS011;74989;52.210;5.148;2024-01-30T07:31:40;13.18;;;8.45;;
81679;SDS011;74989;52.210;5.148;2024-01-30T07:34:07;19.47;;;8.67;;
81679;SDS011;74989;52.210;5.148;2024-01-30T07:36:35;14.88;;;8.50;;
81679;SDS011;74989;52.210;5.148;2024-01-30T07:39:02;16.77;;;9.25;;
81679;SDS011;74989;52.210;5.148;2024-01-30T07:41:29;13.75;;;7.95;;
81679;SDS011;74989;52.210;5.148;2024-01-30T07:43:55;20.67;;;9.50;;
81679;SDS011;74989;52.210;5.148;2024-01-30T07:46:22;13.73;;;7.97;;
81679;SDS011;74989;52.210;5.148;2024-01-30T07:48:53;14.98;;;7.43;;
81679;SDS011;74989;52.210;5.148;2024-01-30T07:51:20;14.05;;;8.65;;
81679;SDS011;74989;52.210;5.148;2024-01-30T07:53:54;14.48;;;8.82;;
81679;SDS011;74989;52.210;5.148;2024-01-30T07:56:23;12.93;;;7.85;;
81679;SDS011;74989;52.210;5.148;2024-01-30T07:58:50;12.30;;;8.00;;
81679;SDS011;74989;52.210;5.148;2024-01-30T08:01:17;15.48;;;8.10;;
81679;SDS011;74989;52.210;5.148;2024-01-30T08:03:44;14.43;;;8.10;;
81679;SDS011;74989;52.210;5.148;2024-01-30T08:06:12;16.50;;;8.05;;
81679;SDS011;74989;52.210;5.148;2024-01-30T08:08:39;18.58;;;7.72;;
81679;SDS011;74989;52.210;5.148;2024-01-30T08:11:06;15.13;;;8.40;;
81679;SDS011;74989;52.210;5.148;2024-01-30T08:13:32;13.38;;;7.57;;
81679;SDS011;74989;52.210;5.148;2024-01-30T08:15:59;15.88;;;8.38;;
81679;SDS011;74989;52.210;5.148;2024-01-30T08:18:26;15.40;;;8.13;;
81679;SDS011;74989;52.210;5.148;2024-01-30T08:20:52;22.25;;;9.18;;
81679;SDS011;74989;52.210;5.148;2024-01-30T08:23:20;17.30;;;7.53;;
81679;SDS011;74989;52.210;5.148;2024-01-30T08:25:47;16.70;;;8.18;;
81679;SDS011;74989;52.210;5.148;2024-01-30T08:28:13;14.35;;;7.90;;
81679;SDS011;74989;52.210;5.148;2024-01-30T08:30:40;18.25;;;8.02;;
81679;SDS011;74989;52.210;5.148;2024-01-30T08:33:07;17.75;;;8.35;;
81679;SDS011;74989;52.210;5.148;2024-01-30T08:35:34;20.33;;;7.60;;
81679;SDS011;74989;52.210;5.148;2024-01-30T08:38:00;13.02;;;7.55;;
81679;SDS011;74989;52.210;5.148;2024-01-30T08:40:30;15.32;;;7.13;;
81679;SDS011;74989;52.210;5.148;2024-01-30T08:42:56;20.02;;;8.95;;
81679;SDS011;74989;52.210;5.148;2024-01-30T08:45:23;18.65;;;7.75;;
81679;SDS011;74989;52.210;5.148;2024-01-30T08:47:50;16.90;;;8.80;;
81679;SDS011;74989;52.210;5.148;2024-01-30T08:50:17;14.63;;;7.40;;
81679;SDS011;74989;52.210;5.148;2024-01-30T08:52:44;20.83;;;8.63;;
81679;SDS011;74989;52.210;5.148;2024-01-30T08:55:11;16.45;;;7.65;;
81679;SDS011;74989;52.210;5.148;2024-01-30T08:57:39;17.55;;;8.07;;
81679;SDS011;74989;52.210;5.148;2024-01-30T09:00:06;15.70;;;8.23;;
81679;SDS011;74989;52.210;5.148;2024-01-30T09:02:34;17.75;;;8.15;;
81679;SDS011;74989;52.210;5.148;2024-01-30T09:05:01;21.52;;;9.00;;
81679;SDS011;74989;52.210;5.148;2024-01-30T09:07:28;13.85;;;7.80;;
81679;SDS011;74989;52.210;5.148;2024-01-30T09:09:54;17.45;;;8.05;;
81679;SDS011;74989;52.210;5.148;2024-01-30T09:12:21;19.20;;;8.70;;
81679;SDS011;74989;52.210;5.148;2024-01-30T09:14:49;18.13;;;7.50;;
81679;SDS011;74989;52.210;5.148;2024-01-30T09:17:16;17.23;;;7.97;;
81679;SDS011;74989;52.210;5.148;2024-01-30T09:19:42;13.88;;;7.95;;
81679;SDS011;74989;52.210;5.148;2024-01-30T09:22:09;22.92;;;8.07;;
81679;SDS011;74989;52.210;5.148;2024-01-30T09:24:35;19.43;;;8.10;;
81679;SDS011;74989;52.210;5.148;2024-01-30T09:27:02;17.13;;;7.93;;
81679;SDS011;74989;52.210;5.148;2024-01-30T09:29:29;21.35;;;8.48;;
81679;SDS011;74989;52.210;5.148;2024-01-30T09:31:57;17.08;;;8.27;;
81679;SDS011;74989;52.210;5.148;2024-01-30T09:34:24;18.90;;;8.55;;
81679;SDS011;74989;52.210;5.148;2024-01-30T09:36:50;15.33;;;7.30;;
81679;SDS011;74989;52.210;5.148;2024-01-30T09:39:17;15.02;;;8.32;;
81679;SDS011;74989;52.210;5.148;2024-01-30T09:41:45;16.88;;;8.27;;
81679;SDS011;74989;52.210;5.148;2024-01-30T09:44:15;14.25;;;7.55;;
81679;SDS011;74989;52.210;5.148;2024-01-30T09:46:42;18.02;;;8.68;;
81679;SDS011;74989;52.210;5.148;2024-01-30T09:49:14;15.17;;;7.70;;
81679;SDS011;74989;52.210;5.148;2024-01-30T09:51:42;12.23;;;8.30;;
81679;SDS011;74989;52.210;5.148;2024-01-30T09:54:09;17.25;;;8.23;;
81679;SDS011;74989;52.210;5.148;2024-01-30T09:56:36;25.73;;;8.20;;
81679;SDS011;74989;52.210;5.148;2024-01-30T09:59:03;20.98;;;8.20;;
81679;SDS011;74989;52.210;5.148;2024-01-30T10:01:30;13.57;;;7.70;;
81679;SDS011;74989;52.210;5.148;2024-01-30T10:03:57;12.82;;;8.40;;
81679;SDS011;74989;52.210;5.148;2024-01-30T10:06:25;15.30;;;8.35;;
81679;SDS011;74989;52.210;5.148;2024-01-30T10:08:53;13.27;;;6.95;;
81679;SDS011;74989;52.210;5.148;2024-01-30T10:11:20;14.88;;;7.68;;
81679;SDS011;74989;52.210;5.148;2024-01-30T10:13:47;14.27;;;7.00;;
81679;SDS011;74989;52.210;5.148;2024-01-30T10:16:14;14.63;;;6.95;;
81679;SDS011;74989;52.210;5.148;2024-01-30T10:18:42;18.15;;;8.25;;
81679;SDS011;74989;52.210;5.148;2024-01-30T10:21:08;13.45;;;7.47;;
81679;SDS011;74989;52.210;5.148;2024-01-30T10:23:36;17.70;;;7.00;;
81679;SDS011;74989;52.210;5.148;2024-01-30T10:26:04;16.37;;;7.90;;
81679;SDS011;74989;52.210;5.148;2024-01-30T10:28:31;19.15;;;7.55;;
81679;SDS011;74989;52.210;5.148;2024-01-30T10:30:58;12.55;;;7.50;;
81679;SDS011;74989;52.210;5.148;2024-01-30T10:33:25;17.80;;;7.18;;
81679;SDS011;74989;52.210;5.148;2024-01-30T10:35:54;17.73;;;6.60;;
81679;SDS011;74989;52.210;5.148;2024-01-30T10:38:27;16.07;;;5.87;;
81679;SDS011;74989;52.210;5.148;2024-01-30T10:40:57;15.57;;;5.28;;
81679;SDS011;74989;52.210;5.148;2024-01-30T10:43:27;14.27;;;6.05;;
81679;SDS011;74989;52.210;5.148;2024-01-30T10:45:59;14.85;;;5.32;;
81679;SDS011;74989;52.210;5.148;2024-01-30T10:48:33;13.00;;;5.82;;
81679;SDS011;74989;52.210;5.148;2024-01-30T10:51:05;14.77;;;4.70;;
81679;SDS011;74989;52.210;5.148;2024-01-30T10:53:32;19.23;;;5.03;;
81679;SDS011;74989;52.210;5.148;2024-01-30T10:56:00;14.43;;;4.97;;
81679;SDS011;74989;52.210;5.148;2024-01-30T10:58:29;14.40;;;4.07;;
81679;SDS011;74989;52.210;5.148;2024-01-30T11:00:55;19.15;;;4.22;;
81679;SDS011;74989;52.210;5.148;2024-01-30T11:03:23;11.77;;;4.23;;
81679;SDS011;74989;52.210;5.148;2024-01-30T11:05:50;14.95;;;3.72;;
81679;SDS011;74989;52.210;5.148;2024-01-30T11:08:22;14.15;;;3.95;;
81679;SDS011;74989;52.210;5.148;2024-01-30T11:10:49;9.85;;;2.58;;
81679;SDS011;74989;52.210;5.148;2024-01-30T11:13:23;9.88;;;3.03;;
81679;SDS011;74989;52.210;5.148;2024-01-30T11:15:54;12.30;;;2.63;;
81679;SDS011;74989;52.210;5.148;2024-01-30T11:18:23;4.75;;;1.75;;
81679;SDS011;74989;52.210;5.148;2024-01-30T11:20:51;10.43;;;3.10;;
81679;SDS011;74989;52.210;5.148;2024-01-30T11:23:18;8.27;;;2.60;;
81679;SDS011;74989;52.210;5.148;2024-01-30T11:25:44;6.35;;;2.65;;
81679;SDS011;74989;52.210;5.148;2024-01-30T11:28:13;6.10;;;2.57;;
81679;SDS011;74989;52.210;5.148;2024-01-30T11:30:42;10.65;;;3.13;;
81679;SDS011;74989;52.210;5.148;2024-01-30T11:33:09;11.95;;;4.47;;
81679;SDS011;74989;52.210;5.148;2024-01-30T11:35:37;8.63;;;3.42;;
81679;SDS011;74989;52.210;5.148;2024-01-30T11:38:05;10.35;;;3.65;;
81679;SDS011;74989;52.210;5.148;2024-01-30T11:40:33;10.17;;;3.80;;
81679;SDS011;74989;52.210;5.148;2024-01-30T11:43:01;5.65;;;3.05;;
81679;SDS011;74989;52.210;5.148;2024-01-30T11:45:30;7.35;;;3.42;;
81679;SDS011;74989;52.210;5.148;2024-01-30T11:47:58;8.40;;;3.22;;
81679;SDS011;74989;52.210;5.148;2024-01-30T11:50:28;8.50;;;4.15;;
81679;SDS011;74989;52.210;5.148;2024-01-30T11:52:55;6.70;;;2.73;;
81679;SDS011;74989;52.210;5.148;2024-01-30T11:55:24;11.35;;;2.83;;
81679;SDS011;74989;52.210;5.148;2024-01-30T11:57:50;6.75;;;2.63;;
81679;SDS011;74989;52.210;5.148;2024-01-30T12:00:17;5.63;;;2.17;;
81679;SDS011;74989;52.210;5.148;2024-01-30T12:02:48;5.65;;;2.38;;
81679;SDS011;74989;52.210;5.148;2024-01-30T12:05:18;6.07;;;2.23;;
81679;SDS011;74989;52.210;5.148;2024-01-30T12:07:45;11.40;;;2.40;;
81679;SDS011;74989;52.210;5.148;2024-01-30T12:10:12;5.82;;;2.08;;
81679;SDS011;74989;52.210;5.148;2024-01-30T12:12:40;6.53;;;2.28;;
81679;SDS011;74989;52.210;5.148;2024-01-30T12:15:08;5.38;;;2.25;;
81679;SDS011;74989;52.210;5.148;2024-01-30T12:17:36;10.40;;;1.90;;
81679;SDS011;74989;52.210;5.148;2024-01-30T12:20:03;8.70;;;2.45;;
81679;SDS011;74989;52.210;5.148;2024-01-30T12:22:33;6.60;;;2.40;;
81679;SDS011;74989;52.210;5.148;2024-01-30T12:25:02;6.68;;;2.08;;
81679;SDS011;74989;52.210;5.148;2024-01-30T12:27:29;12.85;;;2.83;;
81679;SDS011;74989;52.210;5.148;2024-01-30T12:29:56;7.23;;;2.20;;
81679;SDS011;74989;52.210;5.148;2024-01-30T12:32:23;8.25;;;2.28;;
81679;SDS011;74989;52.210;5.148;2024-01-30T12:34:50;8.38;;;2.15;;
81679;SDS011;74989;52.210;5.148;2024-01-30T12:37:16;5.88;;;1.88;;
81679;SDS011;74989;52.210;5.148;2024-01-30T12:39:49;8.90;;;2.50;;
81679;SDS011;74989;52.210;5.148;2024-01-30T12:42:18;7.37;;;2.40;;
81679;SDS011;74989;52.210;5.148;2024-01-30T12:44:46;8.52;;;1.90;;
81679;SDS011;74989;52.210;5.148;2024-01-30T12:47:13;7.53;;;2.40;;
81679;SDS011;74989;52.210;5.148;2024-01-30T12:49:41;8.27;;;2.08;;
81679;SDS011;74989;52.210;5.148;2024-01-30T12:52:08;6.43;;;2.40;;
81679;SDS011;74989;52.210;5.148;2024-01-30T12:54:35;12.73;;;2.33;;
81679;SDS011;74989;52.210;5.148;2024-01-30T12:57:03;5.97;;;2.15;;
81679;SDS011;74989;52.210;5.148;2024-01-30T12:59:30;12.02;;;2.65;;
81679;SDS011;74989;52.210;5.148;2024-01-30T13:01:57;10.65;;;2.63;;
81679;SDS011;74989;52.210;5.148;2024-01-30T13:04:25;11.68;;;2.38;;
81679;SDS011;74989;52.210;5.148;2024-01-30T13:06:52;5.83;;;2.00;;
81679;SDS011;74989;52.210;5.148;2024-01-30T13:09:18;6.15;;;2.13;;
81679;SDS011;74989;52.210;5.148;2024-01-30T13:11:45;5.40;;;2.00;;
81679;SDS011;74989;52.210;5.148;2024-01-30T13:14:13;8.38;;;2.05;;
81679;SDS011;74989;52.210;5.148;2024-01-30T13:16:40;6.07;;;1.75;;
81679;SDS011;74989;52.210;5.148;2024-01-30T13:19:07;10.37;;;2.13;;
81679;SDS011;74989;52.210;5.148;2024-01-30T13:21:33;9.68;;;2.20;;
81679;SDS011;74989;52.210;5.148;2024-01-30T13:24:00;6.15;;;2.10;;
81679;SDS011;74989;52.210;5.148;2024-01-30T13:26:27;7.50;;;1.80;;
81679;SDS011;74989;52.210;5.148;2024-01-30T13:28:53;7.68;;;2.20;;
81679;SDS011;74989;52.210;5.148;2024-01-30T13:31:22;7.47;;;2.27;;
81679;SDS011;74989;52.210;5.148;2024-01-30T13:33:49;9.30;;;2.55;;
81679;SDS011;74989;52.210;5.148;2024-01-30T13:36:15;10.68;;;2.83;;
81679;SDS011;74989;52.210;5.148;2024-01-30T13:38:42;11.93;;;2.95;;
81679;SDS011;74989;52.210;5.148;2024-01-30T13:41:09;5.97;;;2.28;;
81679;SDS011;74989;52.210;5.148;2024-01-30T13:43:35;6.00;;;1.90;;
81679;SDS011;74989;52.210;5.148;2024-01-30T13:46:02;7.10;;;2.10;;
81679;SDS011;74989;52.210;5.148;2024-01-30T13:48:30;7.55;;;2.63;;
81679;SDS011;74989;52.210;5.148;2024-01-30T13:50:57;6.32;;;2.67;;
81679;SDS011;74989;52.210;5.148;2024-01-30T13:53:24;5.25;;;2.50;;
81679;SDS011;74989;52.210;5.148;2024-01-30T13:55:51;8.67;;;2.23;;
81679;SDS011;74989;52.210;5.148;2024-01-30T13:58:18;9.00;;;2.50;;
81679;SDS011;74989;52.210;5.148;2024-01-30T14:00:44;4.93;;;2.40;;
81679;SDS011;74989;52.210;5.148;2024-01-30T14:03:11;8.60;;;3.17;;
81679;SDS011;74989;52.210;5.148;2024-01-30T14:05:39;7.40;;;3.28;;
81679;SDS011;74989;52.210;5.148;2024-01-30T14:08:06;8.17;;;3.80;;
81679;SDS011;74989;52.210;5.148;2024-01-30T14:10:33;7.35;;;2.50;;
81679;SDS011;74989;52.210;5.148;2024-01-30T14:13:00;10.50;;;3.58;;
81679;SDS011;74989;52.210;5.148;2024-01-30T14:15:27;4.50;;;2.35;;
81679;SDS011;74989;52.210;5.148;2024-01-30T14:17:54;8.65;;;3.15;;
81679;SDS011;74989;52.210;5.148;2024-01-30T14:20:20;5.40;;;2.30;;
81679;SDS011;74989;52.210;5.148;2024-01-30T14:22:49;5.18;;;2.33;;
81679;SDS011;74989;52.210;5.148;2024-01-30T14:25:20;6.75;;;2.70;;
81679;SDS011;74989;52.210;5.148;2024-01-30T14:27:47;10.52;;;2.63;;
81679;SDS011;74989;52.210;5.148;2024-01-30T14:30:13;5.07;;;2.92;;